createdAt,value
2022-08-09T00:01:10.646Z,15.11
2022-08-09T00:04:06.003Z,15.11
2022-08-09T00:06:29.267Z,15.08
2022-08-09T00:08:58.599Z,15.04
2022-08-09T00:11:27.823Z,15.04
2022-08-09T00:14:11.672Z,15.04
2022-08-09T00:16:44.523Z,15.03
2022-08-09T00:19:14.003Z,15.02
2022-08-09T00:21:56.169Z,15.03
2022-08-09T00:24:24.385Z,15.01
2022-08-09T00:26:50.911Z,15.01
2022-08-09T00:29:39.215Z,15.01
2022-08-09T00:32:04.026Z,14.92
2022-08-09T00:34:32.664Z,14.88
2022-08-09T00:37:00.264Z,14.86
2022-08-09T00:40:14.087Z,14.85
2022-08-09T00:44:19.305Z,14.85
2022-08-09T00:44:59.674Z,14.84
2022-08-09T00:47:33.145Z,14.81
2022-08-09T00:50:02.854Z,14.78
2022-08-09T00:52:31.091Z,14.76
2022-08-09T00:55:00.410Z,14.70
2022-08-09T00:57:34.343Z,14.69
2022-08-09T01:00:20.413Z,14.68
2022-08-09T01:02:53.647Z,14.65
2022-08-09T01:05:53.084Z,14.60
2022-08-09T01:08:30.715Z,14.58
2022-08-09T01:11:17.702Z,14.56
2022-08-09T01:13:59.841Z,14.52
2022-08-09T01:16:35.131Z,14.50
2022-08-09T01:19:42.502Z,14.45
2022-08-09T01:22:30.809Z,14.42
2022-08-09T01:25:29.428Z,14.39
2022-08-09T01:27:59.604Z,14.35
2022-08-09T01:30:35.716Z,14.26
2022-08-09T01:33:18.148Z,14.17
2022-08-09T01:35:59.207Z,14.17
2022-08-09T01:38:29.858Z,14.16
2022-08-09T01:41:13.384Z,14.16
2022-08-09T01:43:51.161Z,14.15
2022-08-09T01:46:32.460Z,14.15
2022-08-09T01:49:10.367Z,14.14
2022-08-09T01:51:44.317Z,14.10
2022-08-09T01:54:13.726Z,14.08
2022-08-09T01:56:51.504Z,14.08
2022-08-09T01:59:21.307Z,14.06
2022-08-09T02:01:58.113Z,14.04
2022-08-09T02:04:28.390Z,14.04
2022-08-09T02:07:18.323Z,14.03
2022-08-09T02:10:11.000Z,13.98
2022-08-09T02:12:39.286Z,13.94
2022-08-09T02:15:08.143Z,13.90
2022-08-09T02:18:01.271Z,13.90
2022-08-09T02:20:32.857Z,13.90
2022-08-09T02:23:14.678Z,13.88
2022-08-09T02:25:52.560Z,13.86
2022-08-09T02:28:40.523Z,13.84
2022-08-09T02:31:18.511Z,13.79
2022-08-09T02:34:06.463Z,13.76
2022-08-09T02:36:44.543Z,13.71
2022-08-09T02:39:33.220Z,13.68
2022-08-09T02:42:11.607Z,13.68
2022-08-09T02:44:41.393Z,13.67
2022-08-09T02:47:12.100Z,13.66
2022-08-09T02:50:02.080Z,13.64
2022-08-09T02:52:40.285Z,13.62
2022-08-09T02:55:21.059Z,13.63
2022-08-09T02:58:00.476Z,13.57
2022-08-09T03:00:47.735Z,13.50
2022-08-09T03:03:37.271Z,13.45
2022-08-09T03:06:14.806Z,13.41
2022-08-09T03:08:46.138Z,13.37
2022-08-09T03:12:06.671Z,13.36
2022-08-09T03:14:07.751Z,13.29
2022-08-09T03:16:41.732Z,13.26
2022-08-09T03:19:14.528Z,13.12
2022-08-09T03:21:57.830Z,13.13
2022-08-09T03:24:31.479Z,13.14
2022-08-09T03:27:13.483Z,13.02
2022-08-09T03:29:57.680Z,12.94
2022-08-09T03:32:30.947Z,12.89
2022-08-09T03:34:59.284Z,12.85
2022-08-09T03:37:55.774Z,12.85
2022-08-09T03:40:13.466Z,12.83
2022-08-09T03:42:44.432Z,12.78
2022-08-09T03:45:11.839Z,12.76
2022-08-09T03:47:41.831Z,12.72
2022-08-09T03:50:12.112Z,12.65
2022-08-09T03:52:43.714Z,12.62
2022-08-09T03:55:14.403Z,12.61
2022-08-09T03:57:53.554Z,12.63
2022-08-09T04:00:29.116Z,12.60
2022-08-09T04:02:57.446Z,12.60
2022-08-09T04:05:27.619Z,12.62
2022-08-09T04:07:57.275Z,12.66
2022-08-09T04:10:29.519Z,12.71
2022-08-09T04:13:00.705Z,12.74
2022-08-09T04:15:42.637Z,12.76
2022-08-09T04:18:18.083Z,12.79
2022-08-09T04:20:50.610Z,12.79
2022-08-09T04:23:18.035Z,12.82
2022-08-09T04:25:52.153Z,12.84
2022-08-09T04:28:33.367Z,12.89
2022-08-09T04:31:05.738Z,13.09
2022-08-09T04:33:52.977Z,13.80
2022-08-09T04:36:25.934Z,14.66
2022-08-09T04:39:00.534Z,15.41
2022-08-09T04:41:32.125Z,15.84
2022-08-09T04:44:05.829Z,15.38
2022-08-09T04:46:56.911Z,15.11
2022-08-09T04:49:30.236Z,15.15
2022-08-09T04:52:07.383Z,15.16
2022-08-09T04:54:36.060Z,14.89
2022-08-09T04:57:03.762Z,14.68
2022-08-09T04:59:30.651Z,14.54
2022-08-09T05:01:57.223Z,14.59
2022-08-09T05:04:23.857Z,14.76
2022-08-09T05:06:57.801Z,14.94
2022-08-09T05:09:24.578Z,15.25
2022-08-09T05:11:51.484Z,15.46
2022-08-09T05:14:18.538Z,17.05
2022-08-09T05:16:58.967Z,19.22
2022-08-09T05:19:31.891Z,20.27
2022-08-09T05:23:50.605Z,20.80
2022-08-09T05:25:00.854Z,20.98
2022-08-09T05:27:27.835Z,21.47
2022-08-09T05:29:56.710Z,21.43
2022-08-09T05:32:23.583Z,21.77
2022-08-09T05:34:50.273Z,22.31
2022-08-09T05:37:18.179Z,22.51
2022-08-09T05:39:44.856Z,22.81
2022-08-09T05:42:20.555Z,23.13
2022-08-09T05:44:53.651Z,22.66
2022-08-09T05:47:22.883Z,22.46
2022-08-09T05:50:30.732Z,22.28
2022-08-09T05:52:42.008Z,22.55
2022-08-09T05:55:21.286Z,22.87
2022-08-09T05:57:51.145Z,22.80
2022-08-09T06:00:23.251Z,22.89
2022-08-09T06:02:54.346Z,22.39
2022-08-09T06:05:30.938Z,21.97
2022-08-09T06:08:11.122Z,22.21
2022-08-09T06:10:38.128Z,22.35
2022-08-09T06:13:12.170Z,22.59
2022-08-09T06:15:44.612Z,22.86
2022-08-09T06:18:13.618Z,22.82
2022-08-09T06:20:42.608Z,22.81
2022-08-09T06:23:11.994Z,22.54
2022-08-09T06:25:38.762Z,22.40
2022-08-09T06:28:07.589Z,22.30
2022-08-09T06:30:34.449Z,22.23
2022-08-09T06:33:13.263Z,22.34
2022-08-09T06:35:57.361Z,22.84
2022-08-09T06:38:36.336Z,23.33
2022-08-09T06:41:13.503Z,23.58
2022-08-09T06:43:46.446Z,23.43
2022-08-09T06:46:39.134Z,23.37
2022-08-09T06:49:00.390Z,23.38
2022-08-09T06:51:27.081Z,23.69
2022-08-09T06:53:55.471Z,23.63
2022-08-09T06:56:30.698Z,23.38
2022-08-09T07:00:56.455Z,23.46
2022-08-09T07:01:54.073Z,23.85
2022-08-09T07:04:25.027Z,23.64
2022-08-09T07:07:00.198Z,23.45
2022-08-09T07:09:54.233Z,23.43
2022-08-09T07:12:17.951Z,23.96
2022-08-09T07:14:51.278Z,23.71
2022-08-09T07:17:21.595Z,23.97
2022-08-09T07:19:50.922Z,24.20
2022-08-09T07:22:34.795Z,24.43
2022-08-09T07:25:05.346Z,24.05
2022-08-09T07:27:43.227Z,23.82
2022-08-09T07:30:21.787Z,24.24
2022-08-09T07:32:51.528Z,23.89
2022-08-09T07:35:19.145Z,24.13
2022-08-09T07:37:46.236Z,23.95
2022-08-09T07:40:18.500Z,23.96
2022-08-09T07:42:56.952Z,23.76
2022-08-09T07:45:40.393Z,23.52
2022-08-09T07:48:28.498Z,23.77
2022-08-09T07:51:03.025Z,24.19
2022-08-09T07:54:04.916Z,24.22
2022-08-09T07:56:27.010Z,24.31
2022-08-09T07:58:55.393Z,24.31
2022-08-09T08:01:28.471Z,24.05
2022-08-09T08:04:00.451Z,23.83
2022-08-09T08:06:32.073Z,24.04
2022-08-09T08:09:04.499Z,23.45
2022-08-09T08:12:10.416Z,22.61
2022-08-09T08:14:18.397Z,21.98
2022-08-09T08:17:00.620Z,21.96
2022-08-09T08:19:34.347Z,21.92
2022-08-09T08:22:01.695Z,21.84
2022-08-09T08:24:34.144Z,21.84
2022-08-09T08:27:16.501Z,21.79
2022-08-09T08:29:48.407Z,21.79
2022-08-09T08:32:18.963Z,21.98
2022-08-09T08:34:51.945Z,22.00
2022-08-09T08:37:21.792Z,21.97
2022-08-09T08:39:51.664Z,21.87
2022-08-09T08:42:18.356Z,21.96
2022-08-09T08:44:57.648Z,22.05
2022-08-09T08:47:29.381Z,22.33
2022-08-09T08:49:58.332Z,22.32
2022-08-09T08:52:58.267Z,22.46
2022-08-09T08:55:19.025Z,22.26
2022-08-09T08:57:57.388Z,22.28
2022-08-09T09:00:30.194Z,22.47
2022-08-09T09:03:08.888Z,22.72
2022-08-09T09:05:58.222Z,22.50
2022-08-09T09:08:30.847Z,22.46
2022-08-09T09:11:02.679Z,22.45
2022-08-09T09:13:41.745Z,22.62
2022-08-09T09:16:18.413Z,22.72
2022-08-09T09:19:15.667Z,23.04
2022-08-09T09:22:15.739Z,23.09
2022-08-09T09:24:59.103Z,22.89
2022-08-09T09:28:05.507Z,22.92
2022-08-09T09:30:47.388Z,23.03
2022-08-09T09:33:16.277Z,23.59
2022-08-09T09:36:02.410Z,23.61
2022-08-09T09:38:42.764Z,23.36
2022-08-09T09:41:10.691Z,23.31
2022-08-09T09:44:10.162Z,23.43
2022-08-09T09:46:41.753Z,23.94
2022-08-09T09:49:11.672Z,23.99
2022-08-09T09:51:40.569Z,24.10
2022-08-09T09:54:21.102Z,23.96
2022-08-09T09:58:00.280Z,24.21
2022-08-09T09:59:36.073Z,24.43
2022-08-09T10:02:02.598Z,24.68
2022-08-09T10:04:30.875Z,24.36
2022-08-09T10:06:58.406Z,24.83
2022-08-09T10:09:48.458Z,24.56
2022-08-09T10:12:34.678Z,24.19
2022-08-09T10:15:17.620Z,24.24
2022-08-09T10:17:56.362Z,24.41
2022-08-09T10:20:33.095Z,24.41
2022-08-09T10:23:17.187Z,24.23
2022-08-09T10:26:06.123Z,24.15
2022-08-09T10:28:34.226Z,24.33
2022-08-09T10:34:10.159Z,24.53
2022-08-09T10:36:36.400Z,24.63
2022-08-09T10:39:03.645Z,24.75
2022-08-09T10:41:40.459Z,24.70
2022-08-09T10:46:55.672Z,24.87
2022-08-09T10:49:51.720Z,24.88
2022-08-09T10:52:46.371Z,25.36
2022-08-09T10:55:24.236Z,25.63
2022-08-09T10:57:55.448Z,25.41
2022-08-09T11:00:30.989Z,25.05
2022-08-09T11:03:10.914Z,24.86
2022-08-09T11:06:15.973Z,25.18
2022-08-09T11:08:47.992Z,25.41
2022-08-09T11:11:20.097Z,25.54
2022-08-09T11:13:53.677Z,25.27
2022-08-09T11:16:37.018Z,25.41
2022-08-09T11:19:09.788Z,25.58
2022-08-09T11:22:04.905Z,25.48
2022-08-09T11:24:57.934Z,25.40
2022-08-09T11:28:05.274Z,25.73
2022-08-09T11:30:36.205Z,25.86
2022-08-09T11:33:16.637Z,25.70
2022-08-09T11:35:49.810Z,25.99
2022-08-09T11:38:32.196Z,25.83
2022-08-09T11:41:05.377Z,25.91
2022-08-09T11:43:39.605Z,25.96
2022-08-09T11:46:06.652Z,25.80
2022-08-09T11:48:50.805Z,25.86
2022-08-09T11:52:49.292Z,25.79
2022-08-09T11:54:27.754Z,26.10
2022-08-09T11:57:56.399Z,25.94
2022-08-09T12:00:24.676Z,25.83
2022-08-09T12:02:54.608Z,25.96
2022-08-09T12:05:22.837Z,25.76
2022-08-09T12:07:50.065Z,25.91
2022-08-09T12:10:38.416Z,25.92
2022-08-09T12:14:07.571Z,25.95
2022-08-09T12:16:02.426Z,25.78
2022-08-09T12:18:33.508Z,25.97
2022-08-09T12:21:02.603Z,25.98
2022-08-09T12:23:58.005Z,25.90
2022-08-09T12:26:19.583Z,25.66
2022-08-09T12:29:10.809Z,25.81
2022-08-09T12:32:02.653Z,26.02
2022-08-09T12:34:41.136Z,26.26
2022-08-09T12:37:21.549Z,26.49
2022-08-09T12:40:08.558Z,26.22
2022-08-09T12:42:36.238Z,26.48
2022-08-09T12:45:32.373Z,26.20
2022-08-09T12:47:52.495Z,25.90
2022-08-09T12:50:19.862Z,26.26
2022-08-09T12:53:17.441Z,26.30
2022-08-09T12:56:12.574Z,26.22
2022-08-09T12:58:24.418Z,26.36
2022-08-09T13:00:55.161Z,26.67
2022-08-09T13:03:53.043Z,26.26
2022-08-09T13:06:34.539Z,26.23
2022-08-09T13:09:22.826Z,26.41
2022-08-09T13:11:52.699Z,26.73
2022-08-09T13:14:43.786Z,26.83
2022-08-09T13:17:16.363Z,26.57
2022-08-09T13:20:14.341Z,26.30
2022-08-09T13:23:05.740Z,26.31
2022-08-09T13:25:52.944Z,26.51
2022-08-09T13:28:34.486Z,26.38
2022-08-09T13:32:14.963Z,26.11
2022-08-09T13:33:54.387Z,26.08
2022-08-09T13:36:40.188Z,26.20
2022-08-09T13:41:17.172Z,26.46
2022-08-09T13:42:12.029Z,26.28
2022-08-09T13:44:42.679Z,26.46
2022-08-09T13:47:27.673Z,26.51
2022-08-09T13:50:18.230Z,26.55
2022-08-09T13:52:55.958Z,26.29
2022-08-09T13:55:22.780Z,26.27
2022-08-09T13:57:56.332Z,25.83
2022-08-09T14:00:28.345Z,25.72
2022-08-09T14:03:16.958Z,25.65
2022-08-09T14:05:59.170Z,25.73
2022-08-09T14:08:29.213Z,25.90
2022-08-09T14:10:57.077Z,25.96
2022-08-09T14:14:16.418Z,25.72
2022-08-09T14:16:14.004Z,25.52
2022-08-09T14:18:43.189Z,25.34
2022-08-09T14:21:17.249Z,25.31
2022-08-09T14:23:53.738Z,25.34
2022-08-09T14:26:21.593Z,25.57
2022-08-09T14:28:47.979Z,25.64
2022-08-09T14:31:14.528Z,25.49
2022-08-09T14:33:41.888Z,25.83
2022-08-09T14:36:20.341Z,26.04
2022-08-09T14:38:52.818Z,25.83
2022-08-09T14:41:34.825Z,25.87
2022-08-09T14:44:07.474Z,25.97
2022-08-09T14:46:54.919Z,26.22
2022-08-09T14:49:25.472Z,26.12
2022-08-09T14:51:53.287Z,26.18
2022-08-09T14:54:28.043Z,26.14
2022-08-09T14:56:57.886Z,26.30
2022-08-09T14:59:24.760Z,26.08
2022-08-09T15:01:53.499Z,26.22
2022-08-09T15:04:20.040Z,26.28
2022-08-09T15:06:50.468Z,26.07
2022-08-09T15:10:03.516Z,25.92
2022-08-09T15:12:08.053Z,25.92
2022-08-09T15:14:38.562Z,25.92
2022-08-09T15:17:09.095Z,26.06
2022-08-09T15:19:36.490Z,26.11
2022-08-09T15:22:03.384Z,26.26
2022-08-09T15:24:29.919Z,26.31
2022-08-09T15:26:56.443Z,26.19
2022-08-09T15:30:56.975Z,26.02
2022-08-09T15:32:29.134Z,26.09
2022-08-09T15:34:59.705Z,26.28
2022-08-09T15:37:56.171Z,26.41
2022-08-09T15:40:25.374Z,26.62
2022-08-09T15:42:59.057Z,26.44
2022-08-09T15:45:29.425Z,26.32
2022-08-09T15:48:05.619Z,26.15
2022-08-09T15:50:39.185Z,26.12
2022-08-09T15:53:18.838Z,26.33
2022-08-09T15:56:04.654Z,26.23
2022-08-09T15:58:39.383Z,26.24
2022-08-09T16:01:06.140Z,26.34
2022-08-09T16:03:38.418Z,26.45
2022-08-09T16:06:29.274Z,26.31
2022-08-09T16:09:01.195Z,26.12
2022-08-09T16:11:33.099Z,26.07
2022-08-09T16:14:06.538Z,26.22
2022-08-09T16:16:37.075Z,26.35
2022-08-09T16:19:08.775Z,26.25
2022-08-09T16:21:40.182Z,26.00
2022-08-09T16:24:20.119Z,25.99
2022-08-09T16:26:59.299Z,26.08
2022-08-09T16:29:37.299Z,25.91
2022-08-09T16:32:18.159Z,25.91
2022-08-09T16:34:56.417Z,25.95
2022-08-09T16:37:55.830Z,25.93
2022-08-09T16:40:13.369Z,26.03
2022-08-09T16:42:45.555Z,25.82
2022-08-09T16:45:17.286Z,25.81
2022-08-09T16:48:41.087Z,25.85
2022-08-09T16:50:33.945Z,25.82
2022-08-09T16:53:02.115Z,25.85
2022-08-09T16:55:44.331Z,25.83
2022-08-09T16:58:17.026Z,25.81
2022-08-09T17:00:43.719Z,25.70
2022-08-09T17:03:21.292Z,25.48
2022-08-09T17:06:08.591Z,25.26
2022-08-09T17:09:02.967Z,25.08
2022-08-09T17:11:37.684Z,24.90
2022-08-09T17:14:26.057Z,24.79
2022-08-09T17:17:00.115Z,24.77
2022-08-09T17:19:47.607Z,24.69
2022-08-09T17:22:24.715Z,24.60
2022-08-09T17:24:56.092Z,24.54
2022-08-09T17:27:31.182Z,24.51
2022-08-09T17:29:57.657Z,24.42
2022-08-09T17:32:37.425Z,24.36
2022-08-09T17:35:12.119Z,24.33
2022-08-09T17:38:11.896Z,24.26
2022-08-09T17:40:28.147Z,24.19
2022-08-09T17:42:59.220Z,24.15
2022-08-09T17:45:45.511Z,24.07
2022-08-09T17:48:14.806Z,23.95
2022-08-09T17:50:42.107Z,23.96
2022-08-09T17:53:22.697Z,23.91
2022-08-09T17:55:54.120Z,23.88
2022-08-09T17:58:26.675Z,23.88
2022-08-09T18:00:56.379Z,23.82
2022-08-09T18:03:24.623Z,23.77
2022-08-09T18:05:52.998Z,23.64
2022-08-09T18:08:21.988Z,23.56
2022-08-09T18:11:02.080Z,23.53
2022-08-09T18:13:39.731Z,23.56
2022-08-09T18:16:30.160Z,23.58
2022-08-09T18:19:03.451Z,23.46
2022-08-09T18:21:31.743Z,23.40
2022-08-09T18:24:09.788Z,23.35
2022-08-09T18:26:46.789Z,23.23
2022-08-09T18:30:40.182Z,23.13
2022-08-09T18:32:05.303Z,22.98
2022-08-09T18:34:34.938Z,22.95
2022-08-09T18:37:03.044Z,22.93
2022-08-09T18:39:32.455Z,22.93
2022-08-09T18:42:01.703Z,22.81
2022-08-09T18:44:28.323Z,22.70
2022-08-09T18:47:06.237Z,22.71
2022-08-09T18:49:43.723Z,22.62
2022-08-09T18:52:15.747Z,22.49
2022-08-09T18:54:52.502Z,22.34
2022-08-09T18:57:19.812Z,22.24
2022-08-09T18:59:54.524Z,22.18
2022-08-09T19:02:30.765Z,22.08
2022-08-09T19:05:03.969Z,21.94
2022-08-09T19:07:43.232Z,21.87
2022-08-09T19:10:26.567Z,21.89
2022-08-09T19:12:59.241Z,21.89
2022-08-09T19:15:39.427Z,21.80
2022-08-09T19:18:06.225Z,21.69
2022-08-09T19:20:43.772Z,21.60
2022-08-09T19:23:16.491Z,21.47
2022-08-09T19:26:01.955Z,21.41
2022-08-09T19:28:29.984Z,21.31
2022-08-09T19:30:57.811Z,21.32
2022-08-09T19:33:24.303Z,21.27
2022-08-09T19:35:58.454Z,21.11
2022-08-09T19:38:26.380Z,21.02
2022-08-09T19:40:53.855Z,20.93
2022-08-09T19:44:00.831Z,20.99
2022-08-09T19:46:08.509Z,20.93
2022-08-09T19:49:00.421Z,20.88
2022-08-09T19:51:27.948Z,20.91
2022-08-09T19:53:58.005Z,20.85
2022-08-09T19:56:29.382Z,20.80
2022-08-09T19:59:40.548Z,20.75
2022-08-09T20:01:53.070Z,20.67
2022-08-09T20:04:36.397Z,20.64
2022-08-09T20:07:06.239Z,20.67
2022-08-09T20:09:44.360Z,20.58
2022-08-09T20:12:27.023Z,20.55
2022-08-09T20:15:02.082Z,20.52
2022-08-09T20:17:41.362Z,20.45
2022-08-09T20:20:15.035Z,20.34
2022-08-09T20:22:44.727Z,20.29
2022-08-09T20:25:13.072Z,20.24
2022-08-09T20:27:48.998Z,20.24
2022-08-09T20:30:17.903Z,20.20
2022-08-09T20:32:52.057Z,20.14
2022-08-09T20:35:19.625Z,20.03
2022-08-09T20:38:22.135Z,20.02
2022-08-09T20:40:32.595Z,19.97
2022-08-09T20:43:18.223Z,19.86
2022-08-09T20:45:56.672Z,19.71
2022-08-09T20:48:30.839Z,19.71
2022-08-09T20:50:58.458Z,19.65
2022-08-09T20:53:35.384Z,19.58
2022-08-09T20:56:07.199Z,19.53
2022-08-09T20:58:35.864Z,19.46
2022-08-09T21:01:33.698Z,19.37
2022-08-09T21:05:49.831Z,19.28
2022-08-09T21:06:41.425Z,19.22
2022-08-09T21:09:13.973Z,19.26
2022-08-09T21:14:30.772Z,19.05
2022-08-09T21:16:59.306Z,18.95
2022-08-09T21:20:19.619Z,18.93
2022-08-09T21:22:36.286Z,18.79
2022-08-09T21:25:17.807Z,18.72
2022-08-09T21:27:50.860Z,18.60
2022-08-09T21:30:18.945Z,18.57
2022-08-09T21:32:48.504Z,18.51
2022-08-09T21:35:14.952Z,18.43
2022-08-09T21:37:58.804Z,18.39
2022-08-09T21:40:30.142Z,18.36
2022-08-09T21:42:58.663Z,18.32
2022-08-09T21:45:25.898Z,18.20
2022-08-09T21:47:52.632Z,18.14
2022-08-09T21:50:35.793Z,18.02
2022-08-09T21:53:06.470Z,17.98
2022-08-09T21:55:46.531Z,17.97
2022-08-09T21:58:13.529Z,17.94
2022-08-09T22:00:41.066Z,17.81
2022-08-09T22:03:19.249Z,17.70
2022-08-09T22:05:51.884Z,17.64
2022-08-09T22:08:18.406Z,17.59
2022-08-09T22:11:00.365Z,17.57
2022-08-09T22:13:35.704Z,17.47
2022-08-09T22:16:08.313Z,17.36
2022-08-09T22:18:37.091Z,17.25
2022-08-09T22:21:10.046Z,17.19
2022-08-09T22:23:58.957Z,17.27
2022-08-09T22:26:35.449Z,17.14
2022-08-09T22:29:07.529Z,17.14
2022-08-09T22:31:36.039Z,17.12
2022-08-09T22:34:02.690Z,17.12
2022-08-09T22:36:29.112Z,17.07
2022-08-09T22:39:46.774Z,16.97
2022-08-09T22:41:58.842Z,16.87
2022-08-09T22:44:25.817Z,16.85
2022-08-09T22:48:16.014Z,16.85
2022-08-09T22:49:47.059Z,16.88
2022-08-09T22:52:13.720Z,16.87
2022-08-09T22:54:42.246Z,16.82
2022-08-09T22:57:11.876Z,16.79
2022-08-09T22:59:55.833Z,16.82
2022-08-09T23:02:25.079Z,16.84
2022-08-09T23:04:53.863Z,16.82
2022-08-09T23:08:22.493Z,16.78
2022-08-09T23:10:26.542Z,16.75
2022-08-09T23:12:52.944Z,16.76
2022-08-09T23:15:19.359Z,16.73
2022-08-09T23:17:45.725Z,16.73
2022-08-09T23:20:12.143Z,16.69
2022-08-09T23:22:38.594Z,16.60
2022-08-09T23:25:06.238Z,16.57
2022-08-09T23:27:33.415Z,16.53
2022-08-09T23:30:00.137Z,16.54
2022-08-09T23:32:26.689Z,16.48
2022-08-09T23:34:53.123Z,16.36
2022-08-09T23:37:21.509Z,16.31
2022-08-09T23:40:01.579Z,16.15
2022-08-09T23:42:28.305Z,16.03
2022-08-09T23:44:54.771Z,15.86
2022-08-09T23:47:21.256Z,15.76
2022-08-09T23:49:47.652Z,15.71
2022-08-09T23:52:14.147Z,15.64
2022-08-09T23:54:44.408Z,15.56
2022-08-09T23:57:12.056Z,15.46
2022-08-09T23:59:59.525Z,15.44
